DLH715 RJTT-EDDM
Flight info
| Callsign | DLH715 |
|---|---|
| Flight time | N/A |
| Altitude | 35000 |
| Route | INUBO Y808 PUTER A590 PASRO/N0487F370 A590 POWAL DCT OPAKE DCT MARCC DCT JUJXI DCT 74N160W/N0495F390 DCT NAMWE DCT 83N130W 84N120W 85N100W 85N080W DCT PELRI/M084F390 DCT 83N020W 78N000W/N0496F410 DCT NORVA DCT TEVMI DCT BINTU DCT SOMUB DCT LILBA DCT VATEX DCT LOMPU DCT BUMIL DCT EMBOX DCT ALOSO T703 SODRO/N0453F310 T703 LULAR/N0447F300 T105 LANDU LANDU2B |
| Aircraft | A359/H-SADE2E3GHIJ1J2J3J4J5M1P2RWXYZ/LB1D1 |
Departure
| Time | 2026-05-05 04:58 |
|---|---|
| Airport | Tokyo Haneda International Airport (RJTT) |
Arrival
| Time | N/A |
|---|---|
| Airport | Munich Airport (EDDM) |
| Time | Latitude | Longitude | Altitude | Speed | Heading |
|---|---|---|---|---|---|
| 2026-05-05 04:15 | 35.54258 | 139.77198 | 30 ft | 0 kts | 240° |
| 2026-05-05 04:17 | 35.54264 | 139.77211 | 29 ft | 0 kts | 240° |
| 2026-05-05 04:43 | 35.54269 | 139.77222 | 29 ft | 4 kts | 240° |
| 2026-05-05 04:43 | 35.54282 | 139.77250 | 27 ft | 4 kts | 240° |
| 2026-05-05 04:44 | 35.54293 | 139.77273 | 27 ft | 4 kts | 239° |
| 2026-05-05 04:44 | 35.54308 | 139.77300 | 27 ft | 4 kts | 228° |
| 2026-05-05 04:44 | 35.54328 | 139.77319 | 27 ft | 4 kts | 188° |
| 2026-05-05 04:44 | 35.54352 | 139.77318 | 27 ft | 4 kts | 156° |
| 2026-05-05 04:45 | 35.54371 | 139.77306 | 26 ft | 4 kts | 150° |
| 2026-05-05 04:45 | 35.54395 | 139.77289 | 25 ft | 4 kts | 150° |
| 2026-05-05 04:45 | 35.54403 | 139.77282 | 26 ft | 1 kts | 150° |
| 2026-05-05 04:45 | 35.54398 | 139.77281 | 26 ft | 1 kts | 150° |
| 2026-05-05 04:48 | 35.54391 | 139.77285 | 25 ft | 3 kts | 149° |
| 2026-05-05 04:48 | 35.54364 | 139.77318 | 26 ft | 8 kts | 127° |
| 2026-05-05 04:48 | 35.54361 | 139.77390 | 27 ft | 10 kts | 67° |
| 2026-05-05 04:48 | 35.54397 | 139.77471 | 29 ft | 11 kts | 60° |
| 2026-05-05 04:49 | 35.54438 | 139.77557 | 29 ft | 12 kts | 59° |
| 2026-05-05 04:49 | 35.54485 | 139.77654 | 32 ft | 14 kts | 59° |
| 2026-05-05 04:49 | 35.54547 | 139.77682 | 27 ft | 9 kts | 334° |
| 2026-05-05 04:49 | 35.54612 | 139.77636 | 29 ft | 12 kts | 330° |
| 2026-05-05 04:50 | 35.54689 | 139.77581 | 28 ft | 13 kts | 330° |
| 2026-05-05 04:50 | 35.54766 | 139.77526 | 32 ft | 13 kts | 330° |
| 2026-05-05 04:50 | 35.54848 | 139.77469 | 30 ft | 14 kts | 329° |
| 2026-05-05 04:50 | 35.54934 | 139.77407 | 30 ft | 15 kts | 329° |
| 2026-05-05 04:51 | 35.55024 | 139.77343 | 26 ft | 16 kts | 330° |
| 2026-05-05 04:51 | 35.55127 | 139.77271 | 27 ft | 17 kts | 330° |
| 2026-05-05 04:51 | 35.55230 | 139.77198 | 28 ft | 18 kts | 330° |
| 2026-05-05 04:51 | 35.55344 | 139.77118 | 27 ft | 18 kts | 329° |
| 2026-05-05 04:52 | 35.55449 | 139.77042 | 28 ft | 18 kts | 330° |
| 2026-05-05 04:52 | 35.55549 | 139.76978 | 30 ft | 14 kts | 347° |
| 2026-05-05 04:52 | 35.55634 | 139.77025 | 29 ft | 14 kts | 36° |
| 2026-05-05 04:52 | 35.55710 | 139.77091 | 31 ft | 12 kts | 36° |
| 2026-05-05 04:53 | 35.55784 | 139.77155 | 29 ft | 14 kts | 34° |
| 2026-05-05 04:53 | 35.55868 | 139.77227 | 30 ft | 14 kts | 36° |
| 2026-05-05 04:53 | 35.55934 | 139.77307 | 31 ft | 13 kts | 57° |
| 2026-05-05 04:53 | 35.55982 | 139.77407 | 29 ft | 15 kts | 60° |
| 2026-05-05 04:54 | 35.56034 | 139.77518 | 29 ft | 15 kts | 60° |
| 2026-05-05 04:54 | 35.56086 | 139.77627 | 30 ft | 15 kts | 60° |
| 2026-05-05 04:54 | 35.56137 | 139.77737 | 31 ft | 16 kts | 60° |
| 2026-05-05 04:54 | 35.56194 | 139.77858 | 31 ft | 17 kts | 60° |
| 2026-05-05 04:55 | 35.56258 | 139.77994 | 31 ft | 19 kts | 59° |
| 2026-05-05 04:55 | 35.56331 | 139.78142 | 31 ft | 21 kts | 59° |
| 2026-05-05 04:55 | 35.56404 | 139.78298 | 31 ft | 21 kts | 60° |
| 2026-05-05 04:55 | 35.56477 | 139.78450 | 32 ft | 20 kts | 60° |
| 2026-05-05 04:56 | 35.56536 | 139.78575 | 33 ft | 11 kts | 59° |
| 2026-05-05 04:56 | 35.56563 | 139.78648 | 36 ft | 8 kts | 84° |
| 2026-05-05 04:56 | 35.56542 | 139.78690 | 36 ft | 5 kts | 146° |
| 2026-05-05 04:56 | 35.56508 | 139.78714 | 36 ft | 6 kts | 150° |
| 2026-05-05 04:57 | 35.56407 | 139.78785 | 35 ft | 40 kts | 150° |
| 2026-05-05 04:57 | 35.55974 | 139.79093 | 33 ft | 102 kts | 150° |
| 2026-05-05 04:57 | 35.55202 | 139.79641 | 34 ft | 153 kts | 150° |
| 2026-05-05 04:57 | 35.54186 | 139.80344 | 389 ft | 168 kts | 148° |
| 2026-05-05 04:58 | 35.53181 | 139.81027 | 1065 ft | 165 kts | 147° |
| 2026-05-05 04:58 | 35.52303 | 139.81973 | 1491 ft | 175 kts | 127° |
| 2026-05-05 04:58 | 35.51579 | 139.83254 | 1713 ft | 191 kts | 122° |
| 2026-05-05 04:58 | 35.50800 | 139.84653 | 1981 ft | 207 kts | 126° |
| 2026-05-05 04:59 | 35.49808 | 139.86060 | 2151 ft | 229 kts | 135° |
| 2026-05-05 04:59 | 35.48606 | 139.87429 | 2478 ft | 243 kts | 136° |
| 2026-05-05 04:59 | 35.47353 | 139.88869 | 2989 ft | 251 kts | 135° |
| 2026-05-05 04:59 | 35.46165 | 139.90470 | 3458 ft | 259 kts | 123° |
| 2026-05-05 05:00 | 35.45547 | 139.92540 | 3933 ft | 263 kts | 94° |
| 2026-05-05 05:00 | 35.45837 | 139.94745 | 4409 ft | 266 kts | 64° |
| 2026-05-05 05:00 | 35.46507 | 139.96037 | 4762 ft | 267 kts | 49° |
| 2026-05-05 05:00 | 35.47774 | 139.97725 | 5320 ft | 270 kts | 41° |
| 2026-05-05 05:01 | 35.49327 | 139.98972 | 5953 ft | 268 kts | 19° |
| 2026-05-05 05:01 | 35.51127 | 139.99294 | 6549 ft | 267 kts | 353° |
| 2026-05-05 05:01 | 35.52962 | 139.98820 | 7179 ft | 267 kts | 343° |
| 2026-05-05 05:01 | 35.54724 | 139.98197 | 7817 ft | 268 kts | 342° |
| 2026-05-05 05:02 | 35.56516 | 139.97558 | 8486 ft | 269 kts | 342° |
| 2026-05-05 05:02 | 35.58328 | 139.96922 | 9105 ft | 272 kts | 342° |
| 2026-05-05 05:02 | 35.60160 | 139.96313 | 9771 ft | 274 kts | 346° |
| 2026-05-05 05:02 | 35.62075 | 139.96090 | 10294 ft | 282 kts | 358° |
| 2026-05-05 05:03 | 35.64089 | 139.96179 | 10561 ft | 298 kts | 1° |
| 2026-05-05 05:03 | 35.66210 | 139.96330 | 10819 ft | 313 kts | 1° |
| 2026-05-05 05:03 | 35.68432 | 139.96488 | 11080 ft | 327 kts | 1° |
| 2026-05-05 05:03 | 35.70751 | 139.96647 | 11341 ft | 341 kts | 0° |
| 2026-05-05 05:04 | 35.73124 | 139.96680 | 11658 ft | 348 kts | 352° |
| 2026-05-05 05:04 | 35.75478 | 139.95988 | 12168 ft | 349 kts | 339° |
| 2026-05-05 05:04 | 35.77740 | 139.94957 | 12732 ft | 350 kts | 337° |
| 2026-05-05 05:04 | 35.80019 | 139.93874 | 13309 ft | 352 kts | 337° |
| 2026-05-05 05:05 | 35.82314 | 139.92786 | 13856 ft | 354 kts | 336° |
| 2026-05-05 05:05 | 35.84620 | 139.91694 | 14369 ft | 356 kts | 336° |
| 2026-05-05 05:05 | 35.86946 | 139.90595 | 14844 ft | 359 kts | 336° |
| 2026-05-05 05:05 | 35.89292 | 139.89487 | 15329 ft | 363 kts | 336° |
| 2026-05-05 05:06 | 35.91658 | 139.88374 | 15844 ft | 365 kts | 336° |
| 2026-05-05 05:06 | 35.94035 | 139.87259 | 16395 ft | 367 kts | 336° |
| 2026-05-05 05:06 | 35.96448 | 139.86193 | 16889 ft | 371 kts | 340° |
| 2026-05-05 05:06 | 35.99030 | 139.85731 | 17355 ft | 382 kts | 356° |
| 2026-05-05 05:07 | 36.01683 | 139.86281 | 17841 ft | 394 kts | 13° |
| 2026-05-05 05:07 | 36.04283 | 139.87427 | 18310 ft | 400 kts | 16° |
| 2026-05-05 05:07 | 36.06889 | 139.88671 | 18727 ft | 403 kts | 16° |
| 2026-05-05 05:07 | 36.09522 | 139.89927 | 19139 ft | 407 kts | 15° |
| 2026-05-05 05:08 | 36.12172 | 139.91183 | 19591 ft | 409 kts | 15° |
| 2026-05-05 05:08 | 36.14837 | 139.92445 | 20056 ft | 412 kts | 15° |
| 2026-05-05 05:08 | 36.17427 | 139.94076 | 20458 ft | 426 kts | 30° |
| 2026-05-05 05:08 | 36.19594 | 139.96647 | 20872 ft | 442 kts | 49° |
| 2026-05-05 05:09 | 36.21087 | 140.00031 | 21253 ft | 456 kts | 67° |
| 2026-05-05 05:09 | 36.21828 | 140.03891 | 21655 ft | 465 kts | 78° |
| 2026-05-05 05:09 | 36.22343 | 140.07861 | 22042 ft | 469 kts | 78° |
| 2026-05-05 05:09 | 36.22887 | 140.11857 | 22467 ft | 473 kts | 78° |
| 2026-05-05 05:10 | 36.23476 | 140.15887 | 22845 ft | 477 kts | 77° |
| 2026-05-05 05:10 | 36.24051 | 140.19955 | 23264 ft | 482 kts | 80° |
| 2026-05-05 05:10 | 36.24125 | 140.24127 | 23644 ft | 489 kts | 95° |
| 2026-05-05 05:10 | 36.23350 | 140.28230 | 23940 ft | 492 kts | 113° |
| 2026-05-05 05:11 | 36.21738 | 140.31935 | 24224 ft | 489 kts | 130° |
| 2026-05-05 05:11 | 36.19441 | 140.34976 | 24566 ft | 481 kts | 146° |
| 2026-05-05 05:11 | 36.16835 | 140.37568 | 24940 ft | 480 kts | 149° |
| 2026-05-05 05:11 | 36.14182 | 140.40095 | 25326 ft | 482 kts | 149° |
| 2026-05-05 05:12 | 36.11522 | 140.42634 | 25700 ft | 484 kts | 149° |
| 2026-05-05 05:12 | 36.08861 | 140.45184 | 26100 ft | 485 kts | 150° |
| 2026-05-05 05:12 | 36.06226 | 140.47717 | 26486 ft | 487 kts | 151° |
| 2026-05-05 05:12 | 36.03548 | 140.50293 | 26846 ft | 489 kts | 151° |
| 2026-05-05 05:13 | 36.00859 | 140.52880 | 27200 ft | 491 kts | 152° |